sensor_id;sensor_type;location;lat;lon;timestamp;P1;durP1;ratioP1;P2;durP2;ratioP2
43650;SDS011;29247;50.944;5.382;2022-11-15T00:01:11;17.52;;;8.35;;
43650;SDS011;29247;50.944;5.382;2022-11-15T00:03:44;13.77;;;6.30;;
43650;SDS011;29247;50.944;5.382;2022-11-15T00:06:10;11.55;;;6.65;;
43650;SDS011;29247;50.944;5.382;2022-11-15T00:08:36;13.40;;;7.03;;
43650;SDS011;29247;50.944;5.382;2022-11-15T00:11:04;12.88;;;6.75;;
43650;SDS011;29247;50.944;5.382;2022-11-15T00:13:30;17.30;;;8.48;;
43650;SDS011;29247;50.944;5.382;2022-11-15T00:16:01;11.68;;;7.03;;
43650;SDS011;29247;50.944;5.382;2022-11-15T00:18:30;11.57;;;6.45;;
43650;SDS011;29247;50.944;5.382;2022-11-15T00:21:05;13.10;;;6.60;;
43650;SDS011;29247;50.944;5.382;2022-11-15T00:23:46;12.77;;;6.72;;
43650;SDS011;29247;50.944;5.382;2022-11-15T00:26:12;9.85;;;6.13;;
43650;SDS011;29247;50.944;5.382;2022-11-15T00:28:51;12.18;;;7.10;;
43650;SDS011;29247;50.944;5.382;2022-11-15T00:31:18;10.20;;;6.03;;
43650;SDS011;29247;50.944;5.382;2022-11-15T00:33:44;12.15;;;6.28;;
43650;SDS011;29247;50.944;5.382;2022-11-15T00:36:10;11.45;;;6.80;;
43650;SDS011;29247;50.944;5.382;2022-11-15T00:38:39;13.38;;;6.47;;
43650;SDS011;29247;50.944;5.382;2022-11-15T00:41:08;12.32;;;7.35;;
43650;SDS011;29247;50.944;5.382;2022-11-15T00:43:46;11.45;;;7.20;;
43650;SDS011;29247;50.944;5.382;2022-11-15T00:48:43;11.75;;;6.28;;
43650;SDS011;29247;50.944;5.382;2022-11-15T00:51:09;13.82;;;7.10;;
43650;SDS011;29247;50.944;5.382;2022-11-15T00:53:42;12.00;;;7.32;;
43650;SDS011;29247;50.944;5.382;2022-11-15T00:56:11;14.20;;;7.43;;
43650;SDS011;29247;50.944;5.382;2022-11-15T00:58:37;13.32;;;7.28;;
43650;SDS011;29247;50.944;5.382;2022-11-15T01:01:07;10.90;;;6.45;;
43650;SDS011;29247;50.944;5.382;2022-11-15T01:03:38;9.80;;;6.30;;
43650;SDS011;29247;50.944;5.382;2022-11-15T01:06:05;13.93;;;6.35;;
43650;SDS011;29247;50.944;5.382;2022-11-15T01:09:26;11.95;;;6.53;;
43650;SDS011;29247;50.944;5.382;2022-11-15T01:11:52;10.60;;;6.55;;
43650;SDS011;29247;50.944;5.382;2022-11-15T01:14:21;10.98;;;6.35;;
43650;SDS011;29247;50.944;5.382;2022-11-15T01:16:46;9.60;;;6.97;;
43650;SDS011;29247;50.944;5.382;2022-11-15T01:21:49;12.70;;;6.40;;
43650;SDS011;29247;50.944;5.382;2022-11-15T01:24:54;11.88;;;6.85;;
43650;SDS011;29247;50.944;5.382;2022-11-15T01:27:30;10.45;;;6.97;;
43650;SDS011;29247;50.944;5.382;2022-11-15T01:29:56;9.68;;;6.43;;
43650;SDS011;29247;50.944;5.382;2022-11-15T01:32:22;12.40;;;6.10;;
43650;SDS011;29247;50.944;5.382;2022-11-15T01:34:54;10.43;;;6.70;;
43650;SDS011;29247;50.944;5.382;2022-11-15T01:37:33;12.30;;;6.78;;
43650;SDS011;29247;50.944;5.382;2022-11-15T01:39:58;15.13;;;7.18;;
43650;SDS011;29247;50.944;5.382;2022-11-15T01:42:31;10.13;;;6.38;;
43650;SDS011;29247;50.944;5.382;2022-11-15T01:45:15;7.95;;;6.28;;
43650;SDS011;29247;50.944;5.382;2022-11-15T01:47:48;10.00;;;6.82;;
43650;SDS011;29247;50.944;5.382;2022-11-15T01:57:01;8.23;;;6.13;;
43650;SDS011;29247;50.944;5.382;2022-11-15T01:59:51;13.45;;;6.97;;
43650;SDS011;29247;50.944;5.382;2022-11-15T02:12:17;12.18;;;6.28;;
43650;SDS011;29247;50.944;5.382;2022-11-15T02:42:19;8.38;;;5.32;;
43650;SDS011;29247;50.944;5.382;2022-11-15T02:48:47;7.35;;;5.30;;
43650;SDS011;29247;50.944;5.382;2022-11-15T02:51:47;12.82;;;5.53;;
43650;SDS011;29247;50.944;5.382;2022-11-15T02:54:29;10.07;;;5.75;;
43650;SDS011;29247;50.944;5.382;2022-11-15T03:01:38;10.50;;;5.47;;
43650;SDS011;29247;50.944;5.382;2022-11-15T03:07:00;8.57;;;5.10;;
43650;SDS011;29247;50.944;5.382;2022-11-15T03:22:40;8.95;;;6.07;;
43650;SDS011;29247;50.944;5.382;2022-11-15T03:40:52;6.53;;;4.53;;
43650;SDS011;29247;50.944;5.382;2022-11-15T03:46:24;12.10;;;5.35;;
43650;SDS011;29247;50.944;5.382;2022-11-15T03:52:58;9.50;;;4.68;;
43650;SDS011;29247;50.944;5.382;2022-11-15T04:13:03;8.88;;;4.45;;
43650;SDS011;29247;50.944;5.382;2022-11-15T04:30:34;7.25;;;4.65;;
43650;SDS011;29247;50.944;5.382;2022-11-15T04:36:24;7.22;;;4.05;;
43650;SDS011;29247;50.944;5.382;2022-11-15T05:08:45;4.82;;;3.60;;
43650;SDS011;29247;50.944;5.382;2022-11-15T05:14:46;2.38;;;1.90;;
43650;SDS011;29247;50.944;5.382;2022-11-15T05:17:15;2.35;;;2.00;;
43650;SDS011;29247;50.944;5.382;2022-11-15T05:23:22;1.52;;;1.35;;
43650;SDS011;29247;50.944;5.382;2022-11-15T05:39:15;5.55;;;1.67;;
43650;SDS011;29247;50.944;5.382;2022-11-15T05:45:55;1.92;;;1.33;;
43650;SDS011;29247;50.944;5.382;2022-11-15T05:55:10;3.72;;;1.45;;
43650;SDS011;29247;50.944;5.382;2022-11-15T05:57:42;3.10;;;1.58;;
43650;SDS011;29247;50.944;5.382;2022-11-15T06:00:30;2.78;;;1.50;;
43650;SDS011;29247;50.944;5.382;2022-11-15T06:05:46;2.13;;;1.70;;
43650;SDS011;29247;50.944;5.382;2022-11-15T06:08:29;1.88;;;1.42;;
43650;SDS011;29247;50.944;5.382;2022-11-15T06:11:06;5.15;;;1.73;;
43650;SDS011;29247;50.944;5.382;2022-11-15T06:13:46;2.72;;;1.70;;
43650;SDS011;29247;50.944;5.382;2022-11-15T06:16:26;2.35;;;1.73;;
43650;SDS011;29247;50.944;5.382;2022-11-15T06:18:53;3.85;;;1.90;;
43650;SDS011;29247;50.944;5.382;2022-11-15T06:21:22;2.88;;;1.60;;
43650;SDS011;29247;50.944;5.382;2022-11-15T06:23:53;3.92;;;1.70;;
43650;SDS011;29247;50.944;5.382;2022-11-15T06:26:27;2.97;;;1.95;;
43650;SDS011;29247;50.944;5.382;2022-11-15T06:28:59;3.78;;;1.92;;
43650;SDS011;29247;50.944;5.382;2022-11-15T06:31:51;2.22;;;1.67;;
43650;SDS011;29247;50.944;5.382;2022-11-15T06:34:39;3.42;;;2.03;;
43650;SDS011;29247;50.944;5.382;2022-11-15T06:38:01;3.13;;;1.80;;
43650;SDS011;29247;50.944;5.382;2022-11-15T06:44:10;2.30;;;1.67;;
43650;SDS011;29247;50.944;5.382;2022-11-15T06:47:29;3.78;;;1.60;;
43650;SDS011;29247;50.944;5.382;2022-11-15T06:53:06;2.88;;;1.85;;
43650;SDS011;29247;50.944;5.382;2022-11-15T06:55:40;2.25;;;1.48;;
43650;SDS011;29247;50.944;5.382;2022-11-15T06:58:09;4.78;;;1.77;;
43650;SDS011;29247;50.944;5.382;2022-11-15T07:00:37;2.63;;;1.73;;
43650;SDS011;29247;50.944;5.382;2022-11-15T07:03:13;1.95;;;1.40;;
43650;SDS011;29247;50.944;5.382;2022-11-15T07:09:21;2.00;;;1.45;;
43650;SDS011;29247;50.944;5.382;2022-11-15T07:11:57;2.40;;;1.48;;
43650;SDS011;29247;50.944;5.382;2022-11-15T07:14:30;1.58;;;1.30;;
43650;SDS011;29247;50.944;5.382;2022-11-15T07:20:12;3.40;;;1.70;;
43650;SDS011;29247;50.944;5.382;2022-11-15T07:22:54;2.53;;;1.73;;
43650;SDS011;29247;50.944;5.382;2022-11-15T07:25:36;3.78;;;2.13;;
43650;SDS011;29247;50.944;5.382;2022-11-15T07:28:07;3.47;;;1.85;;
43650;SDS011;29247;50.944;5.382;2022-11-15T07:30:34;2.75;;;1.63;;
43650;SDS011;29247;50.944;5.382;2022-11-15T07:33:02;3.00;;;1.90;;
43650;SDS011;29247;50.944;5.382;2022-11-15T07:35:45;3.75;;;1.77;;
43650;SDS011;29247;50.944;5.382;2022-11-15T07:38:27;2.00;;;1.58;;
43650;SDS011;29247;50.944;5.382;2022-11-15T07:40:58;3.38;;;1.85;;
43650;SDS011;29247;50.944;5.382;2022-11-15T07:43:56;6.38;;;2.25;;
43650;SDS011;29247;50.944;5.382;2022-11-15T07:46:44;2.83;;;1.60;;
43650;SDS011;29247;50.944;5.382;2022-11-15T07:49:31;3.05;;;1.70;;
43650;SDS011;29247;50.944;5.382;2022-11-15T07:52:00;5.43;;;1.80;;
43650;SDS011;29247;50.944;5.382;2022-11-15T07:58:22;5.55;;;2.22;;
43650;SDS011;29247;50.944;5.382;2022-11-15T08:04:14;2.90;;;1.70;;
43650;SDS011;29247;50.944;5.382;2022-11-15T08:07:27;2.72;;;1.83;;
43650;SDS011;29247;50.944;5.382;2022-11-15T08:09:57;4.03;;;1.60;;
43650;SDS011;29247;50.944;5.382;2022-11-15T08:13:08;6.50;;;1.85;;
43650;SDS011;29247;50.944;5.382;2022-11-15T08:16:22;2.35;;;1.58;;
43650;SDS011;29247;50.944;5.382;2022-11-15T08:18:53;2.47;;;1.70;;
43650;SDS011;29247;50.944;5.382;2022-11-15T08:21:28;3.88;;;1.20;;
43650;SDS011;29247;50.944;5.382;2022-11-15T08:24:27;2.40;;;1.35;;
43650;SDS011;29247;50.944;5.382;2022-11-15T08:28:00;1.77;;;1.13;;
43650;SDS011;29247;50.944;5.382;2022-11-15T08:37:45;1.55;;;1.00;;
43650;SDS011;29247;50.944;5.382;2022-11-15T08:47:11;2.03;;;1.05;;
43650;SDS011;29247;50.944;5.382;2022-11-15T08:50:00;2.53;;;1.20;;
43650;SDS011;29247;50.944;5.382;2022-11-15T08:53:15;1.83;;;1.20;;
43650;SDS011;29247;50.944;5.382;2022-11-15T08:56:22;1.92;;;1.15;;
43650;SDS011;29247;50.944;5.382;2022-11-15T08:59:14;2.25;;;0.98;;
43650;SDS011;29247;50.944;5.382;2022-11-15T09:05:26;2.90;;;1.27;;
43650;SDS011;29247;50.944;5.382;2022-11-15T09:11:17;2.38;;;1.10;;
43650;SDS011;29247;50.944;5.382;2022-11-15T09:14:40;3.30;;;1.25;;
43650;SDS011;29247;50.944;5.382;2022-11-15T09:17:19;1.92;;;1.00;;
43650;SDS011;29247;50.944;5.382;2022-11-15T09:20:02;2.95;;;1.30;;
43650;SDS011;29247;50.944;5.382;2022-11-15T09:22:43;4.30;;;1.17;;
43650;SDS011;29247;50.944;5.382;2022-11-15T09:25:20;2.45;;;1.23;;
43650;SDS011;29247;50.944;5.382;2022-11-15T09:28:07;3.50;;;1.48;;
43650;SDS011;29247;50.944;5.382;2022-11-15T09:30:37;2.78;;;1.20;;
43650;SDS011;29247;50.944;5.382;2022-11-15T09:33:06;3.10;;;1.30;;
43650;SDS011;29247;50.944;5.382;2022-11-15T09:35:47;7.85;;;1.58;;
43650;SDS011;29247;50.944;5.382;2022-11-15T09:38:14;7.65;;;0.90;;
43650;SDS011;29247;50.944;5.382;2022-11-15T09:49:23;4.18;;;1.17;;
43650;SDS011;29247;50.944;5.382;2022-11-15T09:51:54;5.18;;;1.25;;
43650;SDS011;29247;50.944;5.382;2022-11-15T10:14:25;3.70;;;0.90;;
43650;SDS011;29247;50.944;5.382;2022-11-15T10:21:20;2.33;;;0.80;;
43650;SDS011;29247;50.944;5.382;2022-11-15T10:30:06;0.68;;;0.60;;
43650;SDS011;29247;50.944;5.382;2022-11-15T10:39:26;1.08;;;0.65;;
43650;SDS011;29247;50.944;5.382;2022-11-15T10:42:25;3.03;;;0.70;;
43650;SDS011;29247;50.944;5.382;2022-11-15T10:55:36;2.20;;;0.75;;
43650;SDS011;29247;50.944;5.382;2022-11-15T11:47:07;2.20;;;0.70;;
43650;SDS011;29247;50.944;5.382;2022-11-15T12:02:47;3.20;;;1.17;;
43650;SDS011;29247;50.944;5.382;2022-11-15T12:05:57;1.98;;;0.57;;
43650;SDS011;29247;50.944;5.382;2022-11-15T12:17:11;2.40;;;0.52;;
43650;SDS011;29247;50.944;5.382;2022-11-15T12:22:54;1.23;;;0.60;;
43650;SDS011;29247;50.944;5.382;2022-11-15T12:28:14;1.20;;;0.63;;
43650;SDS011;29247;50.944;5.382;2022-11-15T12:33:47;2.83;;;0.80;;
43650;SDS011;29247;50.944;5.382;2022-11-15T12:39:08;0.90;;;0.75;;
43650;SDS011;29247;50.944;5.382;2022-11-15T12:42:35;1.88;;;0.80;;
43650;SDS011;29247;50.944;5.382;2022-11-15T12:45:25;1.40;;;0.57;;
43650;SDS011;29247;50.944;5.382;2022-11-15T12:51:13;2.05;;;0.60;;
43650;SDS011;29247;50.944;5.382;2022-11-15T13:02:48;1.10;;;0.57;;
43650;SDS011;29247;50.944;5.382;2022-11-15T13:06:36;2.90;;;0.75;;
43650;SDS011;29247;50.944;5.382;2022-11-15T13:09:01;1.80;;;0.70;;
43650;SDS011;29247;50.944;5.382;2022-11-15T13:11:50;2.13;;;0.70;;
43650;SDS011;29247;50.944;5.382;2022-11-15T13:17:09;1.92;;;0.77;;
43650;SDS011;29247;50.944;5.382;2022-11-15T13:19:57;1.95;;;0.80;;
43650;SDS011;29247;50.944;5.382;2022-11-15T13:23:18;1.92;;;0.60;;
43650;SDS011;29247;50.944;5.382;2022-11-15T13:31:24;2.03;;;0.80;;
43650;SDS011;29247;50.944;5.382;2022-11-15T13:33:51;3.65;;;1.10;;
43650;SDS011;29247;50.944;5.382;2022-11-15T13:36:25;4.20;;;0.82;;
43650;SDS011;29247;50.944;5.382;2022-11-15T13:39:02;1.23;;;0.90;;
43650;SDS011;29247;50.944;5.382;2022-11-15T13:41:34;4.65;;;0.90;;
43650;SDS011;29247;50.944;5.382;2022-11-15T13:44:01;3.75;;;1.00;;
43650;SDS011;29247;50.944;5.382;2022-11-15T13:46:43;3.25;;;1.00;;
43650;SDS011;29247;50.944;5.382;2022-11-15T13:49:09;1.38;;;0.80;;
43650;SDS011;29247;50.944;5.382;2022-11-15T13:56:37;2.80;;;0.90;;
43650;SDS011;29247;50.944;5.382;2022-11-15T13:59:13;1.20;;;0.90;;
43650;SDS011;29247;50.944;5.382;2022-11-15T14:01:47;0.93;;;0.70;;
43650;SDS011;29247;50.944;5.382;2022-11-15T14:04:17;2.78;;;0.65;;
43650;SDS011;29247;50.944;5.382;2022-11-15T14:06:46;1.67;;;0.80;;
43650;SDS011;29247;50.944;5.382;2022-11-15T14:11:51;3.05;;;0.77;;
43650;SDS011;29247;50.944;5.382;2022-11-15T14:14:23;0.75;;;0.60;;
43650;SDS011;29247;50.944;5.382;2022-11-15T14:16:54;0.88;;;0.70;;
43650;SDS011;29247;50.944;5.382;2022-11-15T14:22:12;0.93;;;0.70;;
43650;SDS011;29247;50.944;5.382;2022-11-15T14:30:33;2.65;;;0.90;;
43650;SDS011;29247;50.944;5.382;2022-11-15T14:33:11;1.77;;;0.68;;
43650;SDS011;29247;50.944;5.382;2022-11-15T14:35:58;0.82;;;0.80;;
43650;SDS011;29247;50.944;5.382;2022-11-15T14:38:38;2.90;;;0.80;;
43650;SDS011;29247;50.944;5.382;2022-11-15T14:41:05;1.90;;;0.90;;
43650;SDS011;29247;50.944;5.382;2022-11-15T14:43:32;1.58;;;0.90;;
43650;SDS011;29247;50.944;5.382;2022-11-15T14:45:58;1.67;;;0.80;;
43650;SDS011;29247;50.944;5.382;2022-11-15T14:48:24;1.17;;;0.80;;
43650;SDS011;29247;50.944;5.382;2022-11-15T14:50:52;1.30;;;0.98;;
43650;SDS011;29247;50.944;5.382;2022-11-15T14:53:18;1.30;;;0.70;;
43650;SDS011;29247;50.944;5.382;2022-11-15T14:55:44;3.35;;;0.93;;
43650;SDS011;29247;50.944;5.382;2022-11-15T14:58:15;0.77;;;0.77;;
43650;SDS011;29247;50.944;5.382;2022-11-15T15:00:43;1.50;;;0.90;;
43650;SDS011;29247;50.944;5.382;2022-11-15T15:03:08;0.63;;;0.63;;
43650;SDS011;29247;50.944;5.382;2022-11-15T15:05:36;4.80;;;0.80;;
43650;SDS011;29247;50.944;5.382;2022-11-15T15:08:04;1.48;;;0.80;;
43650;SDS011;29247;50.944;5.382;2022-11-15T15:10:32;1.73;;;0.93;;
43650;SDS011;29247;50.944;5.382;2022-11-15T15:13:03;1.60;;;1.00;;
43650;SDS011;29247;50.944;5.382;2022-11-15T15:15:36;1.65;;;0.93;;
43650;SDS011;29247;50.944;5.382;2022-11-15T15:18:05;1.73;;;0.95;;
43650;SDS011;29247;50.944;5.382;2022-11-15T15:20:40;3.03;;;1.17;;
43650;SDS011;29247;50.944;5.382;2022-11-15T15:23:10;1.83;;;1.00;;
43650;SDS011;29247;50.944;5.382;2022-11-15T15:25:44;3.03;;;0.90;;
43650;SDS011;29247;50.944;5.382;2022-11-15T15:28:11;3.45;;;1.00;;
43650;SDS011;29247;50.944;5.382;2022-11-15T15:30:40;3.17;;;1.10;;
43650;SDS011;29247;50.944;5.382;2022-11-15T15:33:08;3.30;;;1.48;;
43650;SDS011;29247;50.944;5.382;2022-11-15T15:35:34;2.65;;;1.00;;
43650;SDS011;29247;50.944;5.382;2022-11-15T15:38:03;2.50;;;1.10;;
43650;SDS011;29247;50.944;5.382;2022-11-15T15:40:30;5.03;;;1.13;;
43650;SDS011;29247;50.944;5.382;2022-11-15T15:42:59;3.85;;;1.15;;
43650;SDS011;29247;50.944;5.382;2022-11-15T15:45:26;2.83;;;1.17;;
43650;SDS011;29247;50.944;5.382;2022-11-15T15:47:55;6.32;;;1.40;;
43650;SDS011;29247;50.944;5.382;2022-11-15T15:50:26;2.60;;;1.35;;
43650;SDS011;29247;50.944;5.382;2022-11-15T15:53:02;2.40;;;1.10;;
43650;SDS011;29247;50.944;5.382;2022-11-15T15:55:31;2.13;;;1.10;;
43650;SDS011;29247;50.944;5.382;2022-11-15T15:57:57;1.85;;;1.10;;
43650;SDS011;29247;50.944;5.382;2022-11-15T16:00:24;1.40;;;1.00;;
43650;SDS011;29247;50.944;5.382;2022-11-15T16:02:53;2.75;;;1.20;;
43650;SDS011;29247;50.944;5.382;2022-11-15T16:05:21;2.20;;;1.30;;
43650;SDS011;29247;50.944;5.382;2022-11-15T16:07:50;1.60;;;1.17;;
43650;SDS011;29247;50.944;5.382;2022-11-15T16:10:26;1.30;;;1.02;;
43650;SDS011;29247;50.944;5.382;2022-11-15T16:13:01;2.33;;;1.30;;
43650;SDS011;29247;50.944;5.382;2022-11-15T16:15:32;2.65;;;1.17;;
43650;SDS011;29247;50.944;5.382;2022-11-15T16:18:01;4.60;;;1.60;;
43650;SDS011;29247;50.944;5.382;2022-11-15T16:22:59;2.83;;;1.30;;
43650;SDS011;29247;50.944;5.382;2022-11-15T16:25:29;3.00;;;1.45;;
43650;SDS011;29247;50.944;5.382;2022-11-15T16:27:59;1.73;;;1.40;;
43650;SDS011;29247;50.944;5.382;2022-11-15T16:30:25;2.95;;;1.40;;
43650;SDS011;29247;50.944;5.382;2022-11-15T16:32:53;2.03;;;1.70;;
43650;SDS011;29247;50.944;5.382;2022-11-15T16:35:21;1.77;;;1.40;;
43650;SDS011;29247;50.944;5.382;2022-11-15T16:37:50;1.40;;;1.30;;
43650;SDS011;29247;50.944;5.382;2022-11-15T16:40:25;5.28;;;1.60;;
43650;SDS011;29247;50.944;5.382;2022-11-15T16:43:02;2.75;;;1.63;;
43650;SDS011;29247;50.944;5.382;2022-11-15T16:45:32;3.20;;;1.80;;
43650;SDS011;29247;50.944;5.382;2022-11-15T16:48:01;3.00;;;2.00;;
43650;SDS011;29247;50.944;5.382;2022-11-15T16:50:29;3.03;;;2.00;;
43650;SDS011;29247;50.944;5.382;2022-11-15T16:52:59;3.70;;;2.20;;
43650;SDS011;29247;50.944;5.382;2022-11-15T16:55:29;2.75;;;1.73;;
43650;SDS011;29247;50.944;5.382;2022-11-15T16:57:58;3.88;;;1.95;;
43650;SDS011;29247;50.944;5.382;2022-11-15T17:00:23;3.25;;;2.17;;
43650;SDS011;29247;50.944;5.382;2022-11-15T17:02:52;3.00;;;2.25;;
43650;SDS011;29247;50.944;5.382;2022-11-15T17:05:21;6.07;;;2.20;;
43650;SDS011;29247;50.944;5.382;2022-11-15T17:07:50;5.37;;;2.60;;
43650;SDS011;29247;50.944;5.382;2022-11-15T17:10:18;4.18;;;2.60;;
43650;SDS011;29247;50.944;5.382;2022-11-15T17:12:50;3.15;;;2.60;;
43650;SDS011;29247;50.944;5.382;2022-11-15T17:15:17;3.90;;;2.78;;
43650;SDS011;29247;50.944;5.382;2022-11-15T17:17:43;3.28;;;2.20;;
43650;SDS011;29247;50.944;5.382;2022-11-15T17:20:17;7.05;;;2.20;;
43650;SDS011;29247;50.944;5.382;2022-11-15T17:22:50;4.45;;;2.40;;
43650;SDS011;29247;50.944;5.382;2022-11-15T17:25:16;4.30;;;2.45;;
43650;SDS011;29247;50.944;5.382;2022-11-15T17:27:45;3.63;;;2.55;;
43650;SDS011;29247;50.944;5.382;2022-11-15T17:30:11;5.47;;;2.95;;
43650;SDS011;29247;50.944;5.382;2022-11-15T17:32:40;4.40;;;2.58;;
43650;SDS011;29247;50.944;5.382;2022-11-15T17:35:09;3.78;;;2.55;;
43650;SDS011;29247;50.944;5.382;2022-11-15T17:37:37;5.18;;;3.25;;
43650;SDS011;29247;50.944;5.382;2022-11-15T17:40:02;3.50;;;2.70;;
43650;SDS011;29247;50.944;5.382;2022-11-15T17:42:28;3.55;;;2.83;;
43650;SDS011;29247;50.944;5.382;2022-11-15T17:44:59;3.35;;;2.60;;
43650;SDS011;29247;50.944;5.382;2022-11-15T17:47:26;4.32;;;2.85;;
43650;SDS011;29247;50.944;5.382;2022-11-15T17:49:56;3.63;;;2.83;;
43650;SDS011;29247;50.944;5.382;2022-11-15T17:52:21;4.22;;;3.13;;
43650;SDS011;29247;50.944;5.382;2022-11-15T17:54:50;3.20;;;2.80;;
43650;SDS011;29247;50.944;5.382;2022-11-15T17:57:16;6.30;;;3.30;;
43650;SDS011;29247;50.944;5.382;2022-11-15T17:59:46;6.55;;;2.83;;
43650;SDS011;29247;50.944;5.382;2022-11-15T18:02:17;6.43;;;2.92;;
43650;SDS011;29247;50.944;5.382;2022-11-15T18:04:43;3.30;;;2.78;;
43650;SDS011;29247;50.944;5.382;2022-11-15T18:07:09;3.92;;;2.95;;
43650;SDS011;29247;50.944;5.382;2022-11-15T18:09:36;5.10;;;3.33;;
43650;SDS011;29247;50.944;5.382;2022-11-15T18:12:02;5.35;;;3.45;;
43650;SDS011;29247;50.944;5.382;2022-11-15T18:14:28;3.55;;;2.95;;
43650;SDS011;29247;50.944;5.382;2022-11-15T18:16:54;3.63;;;2.95;;
43650;SDS011;29247;50.944;5.382;2022-11-15T18:19:19;2.95;;;2.33;;
43650;SDS011;29247;50.944;5.382;2022-11-15T18:21:48;4.80;;;3.58;;
43650;SDS011;29247;50.944;5.382;2022-11-15T18:24:32;5.07;;;3.60;;
43650;SDS011;29247;50.944;5.382;2022-11-15T18:27:02;3.63;;;3.08;;
43650;SDS011;29247;50.944;5.382;2022-11-15T18:29:30;4.07;;;3.67;;
43650;SDS011;29247;50.944;5.382;2022-11-15T18:32:01;3.90;;;3.25;;
43650;SDS011;29247;50.944;5.382;2022-11-15T18:34:34;5.03;;;3.80;;
43650;SDS011;29247;50.944;5.382;2022-11-15T18:37:03;5.32;;;3.20;;
43650;SDS011;29247;50.944;5.382;2022-11-15T18:39:33;5.35;;;3.72;;
43650;SDS011;29247;50.944;5.382;2022-11-15T18:42:04;4.85;;;4.05;;
43650;SDS011;29247;50.944;5.382;2022-11-15T18:44:30;3.72;;;3.35;;
43650;SDS011;29247;50.944;5.382;2022-11-15T18:46:56;5.80;;;3.90;;
43650;SDS011;29247;50.944;5.382;2022-11-15T18:49:21;5.50;;;3.83;;
43650;SDS011;29247;50.944;5.382;2022-11-15T18:51:50;4.90;;;4.40;;
43650;SDS011;29247;50.944;5.382;2022-11-15T18:54:17;3.78;;;3.33;;
43650;SDS011;29247;50.944;5.382;2022-11-15T18:56:43;4.53;;;3.60;;
43650;SDS011;29247;50.944;5.382;2022-11-15T18:59:12;6.35;;;4.03;;
43650;SDS011;29247;50.944;5.382;2022-11-15T19:01:40;5.30;;;4.22;;
43650;SDS011;29247;50.944;5.382;2022-11-15T19:04:09;4.43;;;3.55;;
43650;SDS011;29247;50.944;5.382;2022-11-15T19:06:37;4.45;;;3.70;;
43650;SDS011;29247;50.944;5.382;2022-11-15T19:09:04;8.05;;;4.28;;
43650;SDS011;29247;50.944;5.382;2022-11-15T19:11:35;4.80;;;3.42;;
43650;SDS011;29247;50.944;5.382;2022-11-15T19:14:04;4.28;;;3.47;;
43650;SDS011;29247;50.944;5.382;2022-11-15T19:16:35;5.28;;;3.88;;
43650;SDS011;29247;50.944;5.382;2022-11-15T19:19:04;5.60;;;4.00;;
43650;SDS011;29247;50.944;5.382;2022-11-15T19:21:34;5.80;;;4.75;;
43650;SDS011;29247;50.944;5.382;2022-11-15T19:24:02;6.28;;;4.53;;
43650;SDS011;29247;50.944;5.382;2022-11-15T19:26:29;4.75;;;3.80;;
43650;SDS011;29247;50.944;5.382;2022-11-15T19:28:56;8.10;;;4.57;;
43650;SDS011;29247;50.944;5.382;2022-11-15T19:31:25;5.00;;;3.75;;
43650;SDS011;29247;50.944;5.382;2022-11-15T19:33:58;5.60;;;4.18;;
43650;SDS011;29247;50.944;5.382;2022-11-15T19:36:28;7.15;;;3.75;;
43650;SDS011;29247;50.944;5.382;2022-11-15T19:39:05;7.22;;;3.83;;
43650;SDS011;29247;50.944;5.382;2022-11-15T19:41:39;4.53;;;3.65;;
43650;SDS011;29247;50.944;5.382;2022-11-15T19:44:09;8.18;;;4.25;;
43650;SDS011;29247;50.944;5.382;2022-11-15T19:46:38;6.85;;;4.00;;
43650;SDS011;29247;50.944;5.382;2022-11-15T19:49:04;5.80;;;4.35;;
43650;SDS011;29247;50.944;5.382;2022-11-15T19:51:34;5.18;;;4.07;;
43650;SDS011;29247;50.944;5.382;2022-11-15T19:54:03;4.85;;;4.35;;
43650;SDS011;29247;50.944;5.382;2022-11-15T19:56:34;5.30;;;4.40;;
43650;SDS011;29247;50.944;5.382;2022-11-15T19:59:03;4.35;;;3.92;;
43650;SDS011;29247;50.944;5.382;2022-11-15T20:01:33;4.78;;;4.13;;
43650;SDS011;29247;50.944;5.382;2022-11-15T20:04:06;4.75;;;4.18;;
43650;SDS011;29247;50.944;5.382;2022-11-15T20:06:36;6.68;;;4.10;;
43650;SDS011;29247;50.944;5.382;2022-11-15T20:09:11;10.07;;;4.57;;
43650;SDS011;29247;50.944;5.382;2022-11-15T20:11:38;4.80;;;4.18;;
43650;SDS011;29247;50.944;5.382;2022-11-15T20:14:05;4.55;;;4.00;;
43650;SDS011;29247;50.944;5.382;2022-11-15T20:19:04;4.80;;;3.88;;
43650;SDS011;29247;50.944;5.382;2022-11-15T20:21:31;4.80;;;4.22;;
43650;SDS011;29247;50.944;5.382;2022-11-15T20:23:57;5.07;;;4.32;;
43650;SDS011;29247;50.944;5.382;2022-11-15T20:26:25;5.32;;;3.97;;
43650;SDS011;29247;50.944;5.382;2022-11-15T20:28:51;6.25;;;3.60;;
43650;SDS011;29247;50.944;5.382;2022-11-15T20:31:25;5.88;;;3.72;;
43650;SDS011;29247;50.944;5.382;2022-11-15T20:33:50;5.95;;;4.15;;
43650;SDS011;29247;50.944;5.382;2022-11-15T20:36:16;5.13;;;4.25;;
43650;SDS011;29247;50.944;5.382;2022-11-15T20:38:43;5.38;;;3.92;;
43650;SDS011;29247;50.944;5.382;2022-11-15T20:41:09;6.18;;;3.85;;
43650;SDS011;29247;50.944;5.382;2022-11-15T20:43:37;4.45;;;3.67;;
43650;SDS011;29247;50.944;5.382;2022-11-15T20:46:07;4.68;;;3.97;;
43650;SDS011;29247;50.944;5.382;2022-11-15T20:48:41;5.60;;;4.25;;
43650;SDS011;29247;50.944;5.382;2022-11-15T20:51:09;7.40;;;4.10;;
43650;SDS011;29247;50.944;5.382;2022-11-15T20:56:16;4.35;;;3.92;;
43650;SDS011;29247;50.944;5.382;2022-11-15T20:58:45;6.05;;;4.43;;
43650;SDS011;29247;50.944;5.382;2022-11-15T21:01:12;7.85;;;3.90;;
43650;SDS011;29247;50.944;5.382;2022-11-15T21:03:39;6.47;;;4.28;;
43650;SDS011;29247;50.944;5.382;2022-11-15T21:06:07;4.95;;;4.45;;
43650;SDS011;29247;50.944;5.382;2022-11-15T21:08:33;5.65;;;4.30;;
43650;SDS011;29247;50.944;5.382;2022-11-15T21:11:18;5.45;;;4.05;;
43650;SDS011;29247;50.944;5.382;2022-11-15T21:14:03;4.45;;;3.72;;
43650;SDS011;29247;50.944;5.382;2022-11-15T21:16:28;5.75;;;4.18;;
43650;SDS011;29247;50.944;5.382;2022-11-15T21:18:57;5.70;;;3.72;;
43650;SDS011;29247;50.944;5.382;2022-11-15T21:21:25;5.15;;;3.50;;
43650;SDS011;29247;50.944;5.382;2022-11-15T21:23:51;5.18;;;3.75;;
43650;SDS011;29247;50.944;5.382;2022-11-15T21:26:16;5.22;;;3.92;;
43650;SDS011;29247;50.944;5.382;2022-11-15T21:28:48;5.18;;;3.90;;
43650;SDS011;29247;50.944;5.382;2022-11-15T21:31:16;4.80;;;3.90;;
43650;SDS011;29247;50.944;5.382;2022-11-15T21:33:46;5.63;;;3.88;;
43650;SDS011;29247;50.944;5.382;2022-11-15T21:36:13;6.65;;;4.55;;
43650;SDS011;29247;50.944;5.382;2022-11-15T21:38:39;8.52;;;4.25;;
43650;SDS011;29247;50.944;5.382;2022-11-15T21:41:05;6.47;;;4.10;;
43650;SDS011;29247;50.944;5.382;2022-11-15T21:43:34;5.05;;;4.50;;
43650;SDS011;29247;50.944;5.382;2022-11-15T21:46:01;5.38;;;4.03;;
43650;SDS011;29247;50.944;5.382;2022-11-15T21:48:32;5.30;;;4.57;;
43650;SDS011;29247;50.944;5.382;2022-11-15T21:53:26;8.32;;;4.13;;
43650;SDS011;29247;50.944;5.382;2022-11-15T21:55:53;5.18;;;3.90;;
43650;SDS011;29247;50.944;5.382;2022-11-15T21:58:21;7.78;;;5.03;;
43650;SDS011;29247;50.944;5.382;2022-11-15T22:00:49;6.65;;;4.20;;
43650;SDS011;29247;50.944;5.382;2022-11-15T22:03:36;5.90;;;4.15;;
43650;SDS011;29247;50.944;5.382;2022-11-15T22:06:04;4.53;;;4.03;;
43650;SDS011;29247;50.944;5.382;2022-11-15T22:08:33;5.68;;;4.38;;
43650;SDS011;29247;50.944;5.382;2022-11-15T22:10:58;5.53;;;4.00;;
43650;SDS011;29247;50.944;5.382;2022-11-15T22:13:25;5.25;;;4.25;;
43650;SDS011;29247;50.944;5.382;2022-11-15T22:15:53;5.88;;;3.88;;
43650;SDS011;29247;50.944;5.382;2022-11-15T22:18:20;6.45;;;4.38;;
43650;SDS011;29247;50.944;5.382;2022-11-15T22:23:22;5.68;;;4.00;;
43650;SDS011;29247;50.944;5.382;2022-11-15T22:25:48;7.72;;;3.70;;
43650;SDS011;29247;50.944;5.382;2022-11-15T22:28:14;4.22;;;3.13;;